createdAt,value
2023-03-20T00:02:19.769Z,87.17
2023-03-20T00:04:46.791Z,92.03
2023-03-20T00:07:13.777Z,91.80
2023-03-20T00:09:40.814Z,100.67
2023-03-20T00:12:10.363Z,98.23
2023-03-20T00:14:37.343Z,103.67
2023-03-20T00:17:11.028Z,102.30
2023-03-20T00:19:38.615Z,106.20
2023-03-20T00:22:05.612Z,98.13
2023-03-20T00:24:32.624Z,98.33
2023-03-20T00:26:59.670Z,96.07
2023-03-20T00:29:31.147Z,103.87
2023-03-20T00:31:59.133Z,105.87
2023-03-20T00:34:29.746Z,107.33
2023-03-20T00:36:56.948Z,96.77
2023-03-20T00:39:24.435Z,106.20
2023-03-20T00:42:17.076Z,98.63
2023-03-20T00:44:51.125Z,100.17
2023-03-20T00:47:20.882Z,103.00
2023-03-20T00:49:50.081Z,93.23
2023-03-20T00:52:19.269Z,106.67
2023-03-20T00:54:46.462Z,111.07
2023-03-20T00:57:38.914Z,98.73
2023-03-20T01:00:28.859Z,102.97
2023-03-20T01:02:58.033Z,111.33
2023-03-20T01:05:27.523Z,109.53
2023-03-20T01:07:55.024Z,113.00
2023-03-20T01:10:23.620Z,116.17
2023-03-20T01:12:50.793Z,114.77
2023-03-20T01:15:37.907Z,105.50
2023-03-20T01:18:05.558Z,114.03
2023-03-20T01:20:32.568Z,124.13
2023-03-20T01:22:59.658Z,122.77
2023-03-20T01:25:26.761Z,123.93
2023-03-20T01:27:55.098Z,132.07
2023-03-20T01:30:26.529Z,129.83
2023-03-20T01:32:54.184Z,119.17
2023-03-20T01:35:23.733Z,119.27
2023-03-20T01:37:51.169Z,106.10
2023-03-20T01:40:43.536Z,104.27
2023-03-20T01:43:16.803Z,104.17
2023-03-20T01:46:10.321Z,104.13
2023-03-20T01:49:00.918Z,101.67
2023-03-20T01:51:29.620Z,89.37
2023-03-20T01:54:20.098Z,100.83
2023-03-20T01:56:55.194Z,101.73
2023-03-20T01:59:33.548Z,104.68
2023-03-20T02:02:01.032Z,112.47
2023-03-20T02:04:33.631Z,97.03
2023-03-20T02:07:01.008Z,92.87
2023-03-20T02:09:27.996Z,85.77
2023-03-20T02:11:56.526Z,94.43
2023-03-20T02:14:24.181Z,93.43
2023-03-20T02:16:51.285Z,87.53
2023-03-20T02:19:31.985Z,91.37
2023-03-20T02:22:38.703Z,98.03
2023-03-20T02:25:45.476Z,92.47
2023-03-20T02:28:44.190Z,85.13
2023-03-20T02:31:41.412Z,79.33
2023-03-20T02:34:48.653Z,96.90
2023-03-20T02:37:55.369Z,84.03
2023-03-20T02:40:47.808Z,77.83
2023-03-20T02:43:33.013Z,77.60
2023-03-20T02:46:39.711Z,77.40
2023-03-20T02:49:46.526Z,77.53
2023-03-20T02:52:43.141Z,75.07
2023-03-20T02:55:34.984Z,65.33
2023-03-20T02:58:41.818Z,69.37
2023-03-20T03:01:21.167Z,74.23
2023-03-20T03:04:10.908Z,74.77
2023-03-20T03:06:41.855Z,72.60
2023-03-20T03:09:31.791Z,74.50
2023-03-20T03:12:06.928Z,71.37
2023-03-20T03:14:54.520Z,63.17
2023-03-20T03:17:25.848Z,62.20
2023-03-20T03:19:59.242Z,54.77
2023-03-20T03:22:26.816Z,52.50
2023-03-20T03:24:54.915Z,53.10
2023-03-20T03:27:41.499Z,43.53
2023-03-20T03:30:16.180Z,51.87
2023-03-20T03:32:49.657Z,46.67
2023-03-20T03:35:20.901Z,48.50
2023-03-20T03:38:18.919Z,44.20
2023-03-20T03:40:56.906Z,49.10
2023-03-20T03:43:34.105Z,48.70
2023-03-20T03:46:07.032Z,53.23
2023-03-20T03:48:40.420Z,58.10
2023-03-20T03:51:13.029Z,61.50
2023-03-20T03:53:49.069Z,60.07
2023-03-20T03:56:21.127Z,55.87
2023-03-20T03:58:52.353Z,57.80
2023-03-20T04:01:22.298Z,55.03
2023-03-20T04:03:53.866Z,58.30
2023-03-20T04:06:21.297Z,58.57
2023-03-20T04:08:48.455Z,56.17
2023-03-20T04:11:22.367Z,55.90
2023-03-20T04:13:51.498Z,56.57
2023-03-20T04:16:20.297Z,59.80
2023-03-20T04:18:47.780Z,59.70
2023-03-20T04:21:16.207Z,60.17
2023-03-20T04:23:43.532Z,66.63
2023-03-20T04:26:10.679Z,64.13
2023-03-20T04:28:37.871Z,64.10
2023-03-20T04:31:05.281Z,63.83
2023-03-20T04:33:32.398Z,56.97
2023-03-20T04:35:59.526Z,50.70
2023-03-20T04:38:27.072Z,54.80
2023-03-20T04:40:54.204Z,50.93
2023-03-20T04:43:21.276Z,53.90
2023-03-20T04:45:48.519Z,52.43
2023-03-20T04:48:15.511Z,50.67
2023-03-20T04:50:42.504Z,50.40
2023-03-20T04:53:09.523Z,46.60
2023-03-20T04:55:36.610Z,48.20
2023-03-20T04:58:03.910Z,51.77
2023-03-20T05:00:31.093Z,49.87
2023-03-20T05:02:58.373Z,55.33
2023-03-20T05:05:25.876Z,53.93
2023-03-20T05:07:53.163Z,55.77
2023-03-20T05:10:20.226Z,51.40
2023-03-20T05:12:47.877Z,52.73
2023-03-20T05:15:14.904Z,56.33
2023-03-20T05:17:41.851Z,53.37
2023-03-20T05:20:09.594Z,48.33
2023-03-20T05:22:36.997Z,48.10
2023-03-20T05:25:04.287Z,54.60
2023-03-20T05:27:31.376Z,58.13
2023-03-20T05:29:58.361Z,53.40
2023-03-20T05:32:25.580Z,57.20
2023-03-20T05:34:53.155Z,58.93
2023-03-20T05:37:20.181Z,54.90
2023-03-20T05:39:47.127Z,55.03
2023-03-20T05:42:14.089Z,55.73
2023-03-20T05:44:41.329Z,47.20
2023-03-20T05:47:08.405Z,55.30
2023-03-20T05:49:35.414Z,52.43
2023-03-20T05:52:02.718Z,50.67
2023-03-20T05:54:29.748Z,44.97
2023-03-20T05:56:59.038Z,49.87
2023-03-20T05:59:27.402Z,49.90
2023-03-20T06:01:54.339Z,55.30
2023-03-20T06:04:21.422Z,53.83
2023-03-20T06:06:48.436Z,52.20
2023-03-20T06:09:15.779Z,52.87
2023-03-20T06:11:42.776Z,52.10
2023-03-20T06:14:09.806Z,46.60
2023-03-20T06:16:36.822Z,51.87
2023-03-20T06:19:03.957Z,49.50
2023-03-20T06:21:31.210Z,48.23
2023-03-20T06:24:00.152Z,51.17
2023-03-20T06:26:27.323Z,51.70
2023-03-20T06:28:54.342Z,49.23
2023-03-20T06:31:21.664Z,43.57
2023-03-20T06:33:49.239Z,43.73
2023-03-20T06:36:16.358Z,45.57
2023-03-20T06:38:43.522Z,44.43
2023-03-20T06:41:10.508Z,41.53
2023-03-20T06:43:37.592Z,42.50
2023-03-20T06:46:04.923Z,44.87
2023-03-20T06:48:31.926Z,44.83
2023-03-20T06:50:58.874Z,44.93
2023-03-20T06:53:26.090Z,42.27
2023-03-20T06:55:54.837Z,46.40
2023-03-20T06:58:21.871Z,49.33
2023-03-20T07:00:49.073Z,43.87
2023-03-20T07:03:16.781Z,47.53
2023-03-20T07:05:45.047Z,41.60
2023-03-20T07:08:12.328Z,42.33
2023-03-20T07:10:39.355Z,44.17
2023-03-20T07:13:06.353Z,43.83
2023-03-20T07:15:33.614Z,40.30
2023-03-20T07:18:00.888Z,38.70
2023-03-20T07:20:28.094Z,38.03
2023-03-20T07:22:55.699Z,33.03
2023-03-20T07:25:35.476Z,31.87
2023-03-20T07:28:09.048Z,34.00
2023-03-20T07:30:36.383Z,30.93
2023-03-20T07:33:03.640Z,34.40
2023-03-20T07:35:31.043Z,26.47
2023-03-20T07:37:58.376Z,25.57
2023-03-20T07:40:26.036Z,27.73
2023-03-20T07:42:53.039Z,21.83
2023-03-20T07:45:20.053Z,25.87
2023-03-20T07:47:48.668Z,45.10
2023-03-20T07:50:16.446Z,273.33
2023-03-20T07:52:48.241Z,212.47
2023-03-20T07:55:18.358Z,78.73
2023-03-20T07:57:56.217Z,59.63
2023-03-20T08:00:23.260Z,79.13
2023-03-20T08:02:50.265Z,42.57
2023-03-20T08:05:17.978Z,40.10
2023-03-20T08:08:00.950Z,36.13
2023-03-20T08:10:28.188Z,34.13
2023-03-20T08:12:56.102Z,35.47
2023-03-20T08:15:23.138Z,33.93
2023-03-20T08:17:50.142Z,35.80
2023-03-20T08:20:17.603Z,33.43
2023-03-20T08:22:45.166Z,34.27
2023-03-20T08:25:12.307Z,31.67
2023-03-20T08:27:39.234Z,34.53
2023-03-20T08:30:07.166Z,31.57
2023-03-20T08:32:34.297Z,31.33
2023-03-20T08:35:01.482Z,32.07
2023-03-20T08:37:28.741Z,36.67
2023-03-20T08:39:55.791Z,32.80
2023-03-20T08:42:23.152Z,33.73
2023-03-20T08:44:50.187Z,30.50
2023-03-20T08:47:17.342Z,29.57
2023-03-20T08:49:44.432Z,28.17
2023-03-20T08:52:11.602Z,27.03
2023-03-20T08:54:38.764Z,25.90
2023-03-20T08:57:06.113Z,23.17
2023-03-20T08:59:33.283Z,26.07
2023-03-20T09:02:00.608Z,21.97
2023-03-20T09:04:28.112Z,23.33
2023-03-20T09:06:55.552Z,27.63
2023-03-20T09:09:29.430Z,24.57
2023-03-20T09:11:58.602Z,25.20
2023-03-20T09:14:27.162Z,24.10
2023-03-20T09:16:54.290Z,23.70
2023-03-20T09:19:21.333Z,26.77
2023-03-20T09:21:48.919Z,22.47
2023-03-20T09:24:16.568Z,19.57
2023-03-20T09:26:43.613Z,21.93
2023-03-20T09:29:10.619Z,21.00
2023-03-20T09:31:37.778Z,22.83
2023-03-20T09:34:04.822Z,22.50
2023-03-20T09:36:32.026Z,23.33
2023-03-20T09:38:59.177Z,22.67
2023-03-20T09:41:28.504Z,22.43
2023-03-20T09:44:35.270Z,21.40
2023-03-20T09:47:29.402Z,19.07
2023-03-20T09:50:36.311Z,19.07
2023-03-20T09:53:41.035Z,22.37
2023-03-20T09:56:16.779Z,19.93
2023-03-20T09:58:47.500Z,16.00
2023-03-20T10:01:16.069Z,19.03
2023-03-20T10:03:51.709Z,18.83
2023-03-20T10:06:18.780Z,18.53
2023-03-20T10:08:47.160Z,18.03
2023-03-20T10:11:46.430Z,18.93
2023-03-20T10:14:53.178Z,18.47
2023-03-20T10:17:59.871Z,16.97
2023-03-20T10:20:51.186Z,18.63
2023-03-20T10:23:32.359Z,16.73
2023-03-20T10:26:06.416Z,17.87
2023-03-20T10:28:51.821Z,20.17
2023-03-20T10:31:58.646Z,19.65
2023-03-20T10:34:52.247Z,20.67
2023-03-20T10:37:59.033Z,21.17
2023-03-20T10:40:32.367Z,22.37
2023-03-20T10:43:14.689Z,26.67
2023-03-20T10:46:03.847Z,23.83
2023-03-20T10:48:44.447Z,29.70
2023-03-20T10:51:17.295Z,24.77
2023-03-20T10:54:06.037Z,27.40
2023-03-20T10:56:37.970Z,29.33
2023-03-20T10:59:09.154Z,24.83
2023-03-20T11:01:36.372Z,30.47
2023-03-20T11:04:03.559Z,28.77
2023-03-20T11:06:33.369Z,33.13
2023-03-20T11:09:17.115Z,30.10
2023-03-20T11:11:46.581Z,32.30
2023-03-20T11:14:21.141Z,38.50
2023-03-20T11:16:50.384Z,34.80
2023-03-20T11:19:21.372Z,34.80
2023-03-20T11:21:51.136Z,37.33
2023-03-20T11:24:41.257Z,33.67
2023-03-20T11:27:13.433Z,32.70
2023-03-20T11:29:45.176Z,34.13
2023-03-20T11:32:52.445Z,32.33
2023-03-20T11:35:29.149Z,30.00
2023-03-20T11:38:23.297Z,30.93
2023-03-20T11:40:53.698Z,29.13
2023-03-20T11:43:23.995Z,28.03
2023-03-20T11:45:56.305Z,27.37
2023-03-20T11:48:45.765Z,27.40
2023-03-20T11:51:19.952Z,30.57
2023-03-20T11:54:07.991Z,24.87
2023-03-20T11:56:36.845Z,26.10
2023-03-20T11:59:26.870Z,25.27
2023-03-20T12:01:56.067Z,27.33
2023-03-20T12:04:47.997Z,31.00
2023-03-20T12:07:23.771Z,26.90
2023-03-20T12:10:12.528Z,27.33
2023-03-20T12:13:03.157Z,26.93
2023-03-20T12:15:51.924Z,24.33
2023-03-20T12:18:41.031Z,28.00
2023-03-20T12:21:15.162Z,27.50
2023-03-20T12:24:11.580Z,31.70
2023-03-20T12:27:05.745Z,32.20
2023-03-20T12:29:40.778Z,32.10
2023-03-20T12:32:24.625Z,34.47
2023-03-20T12:34:59.036Z,36.10
2023-03-20T12:37:26.201Z,28.08
2023-03-20T12:39:57.186Z,27.73
2023-03-20T12:43:03.882Z,26.07
2023-03-20T12:45:44.198Z,22.20
2023-03-20T12:48:37.274Z,21.53
2023-03-20T12:51:28.834Z,23.80
2023-03-20T12:54:21.401Z,19.37
2023-03-20T12:57:28.082Z,20.80
2023-03-20T13:00:35.144Z,18.63
2023-03-20T13:03:42.066Z,16.67
2023-03-20T13:06:48.787Z,15.83
2023-03-20T13:09:48.185Z,16.20
2023-03-20T13:12:54.857Z,14.77
2023-03-20T13:18:35.521Z,18.23
2023-03-20T13:21:10.807Z,14.27
2023-03-20T13:23:56.843Z,13.48
2023-03-20T13:26:35.055Z,14.10
2023-03-20T13:29:27.067Z,13.93
2023-03-20T13:32:34.386Z,12.93
2023-03-20T13:35:23.488Z,12.20
2023-03-20T13:37:55.658Z,9.67
2023-03-20T13:40:35.697Z,11.50
2023-03-20T13:43:28.510Z,12.37
2023-03-20T13:46:20.078Z,10.20
2023-03-20T13:48:47.563Z,7.73
2023-03-20T13:51:54.971Z,11.43
2023-03-20T13:55:01.757Z,9.23
2023-03-20T13:58:08.442Z,10.23
2023-03-20T14:01:15.490Z,11.13
2023-03-20T14:03:46.326Z,10.47
2023-03-20T14:06:53.073Z,8.37
2023-03-20T14:09:48.685Z,9.57
2023-03-20T14:12:15.754Z,8.07
2023-03-20T14:14:50.410Z,8.07
2023-03-20T14:17:21.278Z,9.60
2023-03-20T14:19:49.923Z,10.10
2023-03-20T14:22:20.824Z,12.00
2023-03-20T14:24:56.122Z,10.27
2023-03-20T14:27:42.767Z,10.13
2023-03-20T14:30:51.442Z,12.47
2023-03-20T14:33:42.453Z,10.83
2023-03-20T14:36:30.499Z,8.40
2023-03-20T14:39:37.201Z,11.33
2023-03-20T14:42:43.873Z,8.57
2023-03-20T14:48:37.789Z,8.57
2023-03-20T14:51:30.043Z,7.30
2023-03-20T14:54:19.014Z,7.83
2023-03-20T14:56:46.058Z,7.53
2023-03-20T14:59:15.547Z,15.53
2023-03-20T15:02:03.210Z,9.00
2023-03-20T15:04:37.536Z,7.37
2023-03-20T15:07:14.965Z,8.37
2023-03-20T15:09:56.400Z,6.20
2023-03-20T15:12:28.251Z,7.53
2023-03-20T15:14:59.595Z,8.03
2023-03-20T15:17:48.278Z,6.90
2023-03-20T15:20:21.412Z,7.93
2023-03-20T15:23:08.315Z,8.67
2023-03-20T15:25:40.777Z,6.27
2023-03-20T15:28:09.464Z,8.30
2023-03-20T15:30:39.500Z,7.57
2023-03-20T15:33:15.082Z,11.20
2023-03-20T15:35:42.154Z,10.10
2023-03-20T15:38:12.509Z,8.67
2023-03-20T15:40:50.576Z,9.77
2023-03-20T15:43:24.379Z,9.00
2023-03-20T15:46:14.246Z,11.03
2023-03-20T15:48:46.934Z,11.03
2023-03-20T15:51:14.330Z,12.93
2023-03-20T15:53:45.580Z,8.43
2023-03-20T15:56:18.736Z,10.37
2023-03-20T15:58:50.273Z,9.90
2023-03-20T16:01:21.228Z,8.13
2023-03-20T16:03:49.225Z,8.50
2023-03-20T16:06:21.202Z,10.00
2023-03-20T16:09:08.160Z,15.27
2023-03-20T16:11:38.960Z,10.47
2023-03-20T16:14:08.107Z,11.40
2023-03-20T16:16:37.867Z,9.70
2023-03-20T16:19:07.253Z,9.23
2023-03-20T16:21:38.981Z,10.33
2023-03-20T16:24:09.320Z,9.07
2023-03-20T16:26:41.104Z,10.70
2023-03-20T16:29:11.291Z,12.93
2023-03-20T16:31:45.794Z,9.83
2023-03-20T16:34:20.770Z,11.10
2023-03-20T16:36:54.944Z,10.88
2023-03-20T16:39:25.902Z,10.03
2023-03-20T16:42:03.305Z,8.03
2023-03-20T16:44:36.438Z,11.07
2023-03-20T16:47:21.816Z,10.33
2023-03-20T16:49:51.942Z,10.88
2023-03-20T16:52:32.431Z,12.67
2023-03-20T16:55:00.784Z,12.43
2023-03-20T16:57:33.312Z,10.27
2023-03-20T17:00:07.248Z,11.67
2023-03-20T17:02:41.034Z,11.50
2023-03-20T17:05:13.643Z,11.77
2023-03-20T17:07:42.682Z,11.67
2023-03-20T17:10:29.528Z,11.83
2023-03-20T17:12:56.747Z,11.63
2023-03-20T17:15:25.019Z,9.87
2023-03-20T17:17:52.190Z,14.43
2023-03-20T17:20:39.297Z,13.37
2023-03-20T17:23:13.532Z,12.30
2023-03-20T17:25:40.679Z,13.37
2023-03-20T17:28:10.651Z,18.90
2023-03-20T17:30:38.316Z,13.67
2023-03-20T17:33:13.607Z,12.37
2023-03-20T17:35:40.688Z,10.48
2023-03-20T17:38:18.168Z,11.13
2023-03-20T17:40:45.501Z,12.03
2023-03-20T17:43:14.385Z,13.90
2023-03-20T17:45:42.509Z,11.80
2023-03-20T17:48:15.992Z,14.03
2023-03-20T17:50:45.166Z,11.83
2023-03-20T17:53:16.240Z,13.53
2023-03-20T17:55:43.408Z,15.77
2023-03-20T17:58:22.021Z,13.53
2023-03-20T18:00:50.486Z,14.63
2023-03-20T18:03:18.308Z,11.23
2023-03-20T18:05:47.678Z,13.53
2023-03-20T18:08:20.029Z,12.63
2023-03-20T18:10:47.954Z,12.67
2023-03-20T18:13:14.930Z,13.73
2023-03-20T18:15:42.130Z,15.23
2023-03-20T18:18:09.560Z,13.10
2023-03-20T18:20:41.198Z,12.60
2023-03-20T18:23:08.740Z,14.03
2023-03-20T18:25:36.158Z,12.63
2023-03-20T18:28:05.105Z,12.87
2023-03-20T18:30:41.541Z,14.00
2023-03-20T18:33:08.912Z,13.90
2023-03-20T18:35:36.679Z,13.73
2023-03-20T18:38:04.565Z,14.80
2023-03-20T18:40:36.791Z,14.27
2023-03-20T18:43:05.024Z,16.97
2023-03-20T18:45:32.616Z,13.83
2023-03-20T18:47:59.970Z,13.27
2023-03-20T18:50:30.491Z,13.80
2023-03-20T18:52:58.617Z,13.83
2023-03-20T18:55:28.103Z,13.03
2023-03-20T18:57:55.432Z,11.33
2023-03-20T19:00:26.562Z,11.60
2023-03-20T19:02:55.606Z,12.37
2023-03-20T19:05:24.833Z,12.43
2023-03-20T19:07:52.389Z,12.93
2023-03-20T19:10:40.547Z,12.40
2023-03-20T19:13:07.884Z,11.87
2023-03-20T19:15:37.527Z,12.97
2023-03-20T19:18:07.564Z,10.37
2023-03-20T19:20:56.584Z,8.77
2023-03-20T19:23:25.947Z,9.13
2023-03-20T19:25:54.607Z,12.90
2023-03-20T19:28:37.736Z,9.60
2023-03-20T19:31:08.078Z,10.02
2023-03-20T19:33:35.868Z,9.47
2023-03-20T19:36:04.596Z,9.03
2023-03-20T19:38:32.640Z,9.87
2023-03-20T19:41:00.351Z,9.50
2023-03-20T19:43:29.075Z,10.03
2023-03-20T19:45:59.095Z,9.97
2023-03-20T19:51:21.331Z,12.50
2023-03-20T19:53:49.434Z,12.97
2023-03-20T19:56:18.376Z,10.07
2023-03-20T19:58:45.585Z,8.80
2023-03-20T20:01:19.265Z,8.33
2023-03-20T20:03:47.216Z,9.30
2023-03-20T20:06:14.900Z,9.40
2023-03-20T20:08:48.350Z,8.70
2023-03-20T20:11:17.494Z,8.30
2023-03-20T20:16:33.002Z,9.93
2023-03-20T20:19:00.221Z,9.20
2023-03-20T20:22:25.281Z,8.20
2023-03-20T20:24:53.996Z,9.17
2023-03-20T20:27:21.128Z,8.50
2023-03-20T20:29:51.210Z,7.47
2023-03-20T20:32:20.903Z,8.67
2023-03-20T20:38:19.619Z,9.20
2023-03-20T20:40:26.201Z,7.47
2023-03-20T20:42:56.280Z,9.73
2023-03-20T20:45:25.676Z,8.10
2023-03-20T20:47:53.773Z,6.83
2023-03-20T20:50:25.032Z,6.73
2023-03-20T20:52:52.403Z,6.67
2023-03-20T20:55:23.511Z,7.73
2023-03-20T20:57:53.797Z,7.60
2023-03-20T21:00:27.514Z,7.77
2023-03-20T21:02:58.969Z,7.00
2023-03-20T21:05:27.294Z,6.27
2023-03-20T21:07:54.603Z,6.27
2023-03-20T21:10:22.318Z,5.77
2023-03-20T21:12:59.092Z,6.63
2023-03-20T21:15:27.531Z,6.80
2023-03-20T21:18:01.226Z,6.30
2023-03-20T21:20:31.424Z,6.33
2023-03-20T21:22:58.976Z,6.13
2023-03-20T21:25:39.197Z,6.23
2023-03-20T21:28:07.931Z,6.43
2023-03-20T21:30:35.244Z,7.27
2023-03-20T21:33:02.849Z,6.90
2023-03-20T21:35:30.723Z,7.47
2023-03-20T21:38:47.482Z,8.27
2023-03-20T21:40:45.927Z,7.30
2023-03-20T21:43:14.460Z,7.57
2023-03-20T21:49:13.288Z,7.53
2023-03-20T21:54:56.924Z,9.07
2023-03-20T22:02:30.938Z,9.07
2023-03-20T22:08:36.377Z,10.63
2023-03-20T22:22:51.402Z,10.90
2023-03-20T22:46:55.192Z,13.63
2023-03-20T22:49:22.425Z,14.87
2023-03-20T22:52:11.515Z,12.57
2023-03-20T22:54:38.182Z,16.70
2023-03-20T22:57:05.439Z,15.47
2023-03-20T22:59:32.766Z,15.00
2023-03-20T23:01:59.978Z,12.77
2023-03-20T23:04:29.612Z,16.87
2023-03-20T23:06:57.424Z,16.47
2023-03-20T23:09:24.483Z,12.83
2023-03-20T23:11:51.516Z,13.40
2023-03-20T23:14:21.699Z,14.50
2023-03-20T23:16:50.190Z,13.00
2023-03-20T23:19:17.754Z,14.00
2023-03-20T23:21:45.016Z,12.73
2023-03-20T23:24:12.038Z,12.23
2023-03-20T23:26:39.103Z,11.87
2023-03-20T23:29:06.606Z,13.80
2023-03-20T23:31:33.993Z,11.83
2023-03-20T23:34:01.203Z,13.30
2023-03-20T23:36:36.338Z,8.93
2023-03-20T23:39:05.854Z,10.40
2023-03-20T23:42:01.822Z,12.63
2023-03-20T23:44:20.280Z,8.67
2023-03-20T23:46:48.358Z,10.47
2023-03-20T23:49:16.545Z,10.73
2023-03-20T23:51:43.649Z,9.40
2023-03-20T23:54:11.143Z,8.90
2023-03-20T23:56:38.351Z,7.73
2023-03-20T23:59:18.722Z,9.03
